sensor_id;sensor_type;location;lat;lon;timestamp;temperature;humidity
1367;DHT22;16877;48.810;9.282;2022-08-21T00:01:19;28.30;53.00
1367;DHT22;16877;48.810;9.282;2022-08-21T00:03:47;28.30;53.00
1367;DHT22;16877;48.810;9.282;2022-08-21T00:06:14;28.20;53.00
1367;DHT22;16877;48.810;9.282;2022-08-21T00:08:42;28.20;53.00
1367;DHT22;16877;48.810;9.282;2022-08-21T00:11:10;28.20;53.00
1367;DHT22;16877;48.810;9.282;2022-08-21T00:13:37;28.20;53.00
1367;DHT22;16877;48.810;9.282;2022-08-21T00:16:04;28.20;53.10
1367;DHT22;16877;48.810;9.282;2022-08-21T00:18:31;28.20;53.10
1367;DHT22;16877;48.810;9.282;2022-08-21T00:20:58;28.10;53.10
1367;DHT22;16877;48.810;9.282;2022-08-21T00:23:25;28.10;53.10
1367;DHT22;16877;48.810;9.282;2022-08-21T00:25:53;28.10;53.20
1367;DHT22;16877;48.810;9.282;2022-08-21T00:28:19;28.10;53.20
1367;DHT22;16877;48.810;9.282;2022-08-21T00:30:46;28.10;53.20
1367;DHT22;16877;48.810;9.282;2022-08-21T00:33:13;28.10;53.20
1367;DHT22;16877;48.810;9.282;2022-08-21T00:35:41;28.10;53.30
1367;DHT22;16877;48.810;9.282;2022-08-21T00:38:09;28.10;53.30
1367;DHT22;16877;48.810;9.282;2022-08-21T00:40:41;28.00;53.20
1367;DHT22;16877;48.810;9.282;2022-08-21T00:43:12;28.00;53.30
1367;DHT22;16877;48.810;9.282;2022-08-21T00:45:39;28.00;53.30
1367;DHT22;16877;48.810;9.282;2022-08-21T00:48:06;28.00;53.40
1367;DHT22;16877;48.810;9.282;2022-08-21T00:50:40;28.00;53.30
1367;DHT22;16877;48.810;9.282;2022-08-21T00:53:08;28.00;53.30
1367;DHT22;16877;48.810;9.282;2022-08-21T00:55:37;28.00;53.30
1367;DHT22;16877;48.810;9.282;2022-08-21T00:58:06;28.00;53.30
1367;DHT22;16877;48.810;9.282;2022-08-21T01:00:39;27.90;53.20
1367;DHT22;16877;48.810;9.282;2022-08-21T01:03:09;28.00;53.30
1367;DHT22;16877;48.810;9.282;2022-08-21T01:05:37;27.90;53.20
1367;DHT22;16877;48.810;9.282;2022-08-21T01:08:05;27.90;53.30
1367;DHT22;16877;48.810;9.282;2022-08-21T01:10:32;27.90;53.30
1367;DHT22;16877;48.810;9.282;2022-08-21T01:12:59;27.80;53.20
1367;DHT22;16877;48.810;9.282;2022-08-21T01:15:29;27.80;53.30
1367;DHT22;16877;48.810;9.282;2022-08-21T01:17:58;27.80;53.30
1367;DHT22;16877;48.810;9.282;2022-08-21T01:20:25;27.80;53.30
1367;DHT22;16877;48.810;9.282;2022-08-21T01:22:54;27.80;53.30
1367;DHT22;16877;48.810;9.282;2022-08-21T01:25:20;27.80;53.40
1367;DHT22;16877;48.810;9.282;2022-08-21T01:27:48;27.80;53.40
1367;DHT22;16877;48.810;9.282;2022-08-21T01:30:18;27.70;53.40
1367;DHT22;16877;48.810;9.282;2022-08-21T01:32:46;27.70;53.40
1367;DHT22;16877;48.810;9.282;2022-08-21T01:35:16;27.70;53.40
1367;DHT22;16877;48.810;9.282;2022-08-21T01:37:44;27.70;53.40
1367;DHT22;16877;48.810;9.282;2022-08-21T01:40:14;27.70;53.40
1367;DHT22;16877;48.810;9.282;2022-08-21T01:42:42;27.60;53.30
1367;DHT22;16877;48.810;9.282;2022-08-21T01:45:10;27.60;53.30
1367;DHT22;16877;48.810;9.282;2022-08-21T01:47:38;27.60;53.30
1367;DHT22;16877;48.810;9.282;2022-08-21T01:50:08;27.60;53.30
1367;DHT22;16877;48.810;9.282;2022-08-21T01:52:35;27.60;53.20
1367;DHT22;16877;48.810;9.282;2022-08-21T01:55:04;27.60;53.20
1367;DHT22;16877;48.810;9.282;2022-08-21T01:57:32;27.50;53.10
1367;DHT22;16877;48.810;9.282;2022-08-21T02:00:00;27.50;53.10
1367;DHT22;16877;48.810;9.282;2022-08-21T02:02:27;27.50;53.00
1367;DHT22;16877;48.810;9.282;2022-08-21T02:04:53;27.50;53.00
1367;DHT22;16877;48.810;9.282;2022-08-21T02:07:20;27.50;52.90
1367;DHT22;16877;48.810;9.282;2022-08-21T02:09:47;27.50;52.90
1367;DHT22;16877;48.810;9.282;2022-08-21T02:12:14;27.40;52.80
1367;DHT22;16877;48.810;9.282;2022-08-21T02:14:42;27.40;52.80
1367;DHT22;16877;48.810;9.282;2022-08-21T02:17:09;27.40;52.80
1367;DHT22;16877;48.810;9.282;2022-08-21T02:19:36;27.40;52.80
1367;DHT22;16877;48.810;9.282;2022-08-21T02:22:04;27.40;52.80
1367;DHT22;16877;48.810;9.282;2022-08-21T02:24:30;27.40;52.70
1367;DHT22;16877;48.810;9.282;2022-08-21T02:26:57;27.30;52.70
1367;DHT22;16877;48.810;9.282;2022-08-21T02:29:24;27.30;52.60
1367;DHT22;16877;48.810;9.282;2022-08-21T02:31:52;27.30;52.60
1367;DHT22;16877;48.810;9.282;2022-08-21T02:34:19;27.30;52.60
1367;DHT22;16877;48.810;9.282;2022-08-21T02:36:46;27.20;52.50
1367;DHT22;16877;48.810;9.282;2022-08-21T02:39:13;27.20;52.50
1367;DHT22;16877;48.810;9.282;2022-08-21T02:41:40;27.20;52.50
1367;DHT22;16877;48.810;9.282;2022-08-21T02:44:06;27.20;52.50
1367;DHT22;16877;48.810;9.282;2022-08-21T02:46:33;27.10;52.40
1367;DHT22;16877;48.810;9.282;2022-08-21T02:49:01;27.10;52.40
1367;DHT22;16877;48.810;9.282;2022-08-21T02:51:28;27.10;52.40
1367;DHT22;16877;48.810;9.282;2022-08-21T02:53:56;27.10;52.40
1367;DHT22;16877;48.810;9.282;2022-08-21T02:56:23;27.10;52.40
1367;DHT22;16877;48.810;9.282;2022-08-21T02:58:51;27.10;52.40
1367;DHT22;16877;48.810;9.282;2022-08-21T03:01:18;27.00;52.20
1367;DHT22;16877;48.810;9.282;2022-08-21T03:03:47;27.00;52.20
1367;DHT22;16877;48.810;9.282;2022-08-21T03:06:18;27.00;52.30
1367;DHT22;16877;48.810;9.282;2022-08-21T03:08:46;27.00;52.30
1367;DHT22;16877;48.810;9.282;2022-08-21T03:11:13;27.00;52.30
1367;DHT22;16877;48.810;9.282;2022-08-21T03:13:40;26.90;52.30
1367;DHT22;16877;48.810;9.282;2022-08-21T03:16:07;26.90;52.30
1367;DHT22;16877;48.810;9.282;2022-08-21T03:18:34;26.90;52.30
1367;DHT22;16877;48.810;9.282;2022-08-21T03:21:01;26.90;52.30
1367;DHT22;16877;48.810;9.282;2022-08-21T03:23:29;26.90;52.30
1367;DHT22;16877;48.810;9.282;2022-08-21T03:25:56;26.90;52.30
1367;DHT22;16877;48.810;9.282;2022-08-21T03:28:23;26.80;52.20
1367;DHT22;16877;48.810;9.282;2022-08-21T03:30:51;26.80;52.20
1367;DHT22;16877;48.810;9.282;2022-08-21T03:33:19;26.80;52.20
1367;DHT22;16877;48.810;9.282;2022-08-21T03:35:49;26.80;52.20
1367;DHT22;16877;48.810;9.282;2022-08-21T03:38:17;26.80;52.20
1367;DHT22;16877;48.810;9.282;2022-08-21T03:40:46;26.70;52.20
1367;DHT22;16877;48.810;9.282;2022-08-21T03:43:13;26.70;52.20
1367;DHT22;16877;48.810;9.282;2022-08-21T03:45:39;26.70;52.10
1367;DHT22;16877;48.810;9.282;2022-08-21T03:48:08;26.70;52.10
1367;DHT22;16877;48.810;9.282;2022-08-21T03:50:38;26.70;52.10
1367;DHT22;16877;48.810;9.282;2022-08-21T03:53:06;26.70;52.10
1367;DHT22;16877;48.810;9.282;2022-08-21T03:55:33;26.70;52.00
1367;DHT22;16877;48.810;9.282;2022-08-21T03:58:01;26.70;52.10
1367;DHT22;16877;48.810;9.282;2022-08-21T04:00:28;26.60;52.00
1367;DHT22;16877;48.810;9.282;2022-08-21T04:02:55;26.60;52.00
1367;DHT22;16877;48.810;9.282;2022-08-21T04:05:22;26.60;52.00
1367;DHT22;16877;48.810;9.282;2022-08-21T04:07:54;26.60;52.00
1367;DHT22;16877;48.810;9.282;2022-08-21T04:10:22;26.60;52.00
1367;DHT22;16877;48.810;9.282;2022-08-21T04:12:49;26.60;52.60
1367;DHT22;16877;48.810;9.282;2022-08-21T04:15:17;26.60;52.00
1367;DHT22;16877;48.810;9.282;2022-08-21T04:17:45;26.60;52.00
1367;DHT22;16877;48.810;9.282;2022-08-21T04:20:11;26.60;52.00
1367;DHT22;16877;48.810;9.282;2022-08-21T04:22:38;26.50;52.00
1367;DHT22;16877;48.810;9.282;2022-08-21T04:25:06;26.50;52.00
1367;DHT22;16877;48.810;9.282;2022-08-21T04:27:33;26.50;52.00
1367;DHT22;16877;48.810;9.282;2022-08-21T04:30:00;26.50;52.00
1367;DHT22;16877;48.810;9.282;2022-08-21T04:32:28;26.50;52.10
1367;DHT22;16877;48.810;9.282;2022-08-21T04:34:58;26.50;52.10
1367;DHT22;16877;48.810;9.282;2022-08-21T04:37:26;26.50;52.10
1367;DHT22;16877;48.810;9.282;2022-08-21T04:39:53;26.50;52.20
1367;DHT22;16877;48.810;9.282;2022-08-21T04:42:21;26.50;52.20
1367;DHT22;16877;48.810;9.282;2022-08-21T04:44:49;26.50;52.20
1367;DHT22;16877;48.810;9.282;2022-08-21T04:47:16;26.50;52.20
1367;DHT22;16877;48.810;9.282;2022-08-21T04:49:44;26.40;52.20
1367;DHT22;16877;48.810;9.282;2022-08-21T04:52:13;26.50;52.30
1367;DHT22;16877;48.810;9.282;2022-08-21T04:54:43;26.50;52.30
1367;DHT22;16877;48.810;9.282;2022-08-21T04:57:11;26.50;52.40
1367;DHT22;16877;48.810;9.282;2022-08-21T04:59:40;26.50;52.30
1367;DHT22;16877;48.810;9.282;2022-08-21T05:02:08;26.50;52.40
1367;DHT22;16877;48.810;9.282;2022-08-21T05:04:38;26.50;52.40
1367;DHT22;16877;48.810;9.282;2022-08-21T05:07:12;26.50;52.30
1367;DHT22;16877;48.810;9.282;2022-08-21T05:09:40;26.50;52.30
1367;DHT22;16877;48.810;9.282;2022-08-21T05:12:07;26.50;52.30
1367;DHT22;16877;48.810;9.282;2022-08-21T05:14:34;26.50;52.30
1367;DHT22;16877;48.810;9.282;2022-08-21T05:17:01;26.50;52.30
1367;DHT22;16877;48.810;9.282;2022-08-21T05:19:28;26.50;52.30
1367;DHT22;16877;48.810;9.282;2022-08-21T05:21:54;26.50;52.30
1367;DHT22;16877;48.810;9.282;2022-08-21T05:24:24;26.50;52.20
1367;DHT22;16877;48.810;9.282;2022-08-21T05:26:51;26.50;52.20
1367;DHT22;16877;48.810;9.282;2022-08-21T05:29:18;26.60;52.20
1367;DHT22;16877;48.810;9.282;2022-08-21T05:31:45;26.60;52.20
1367;DHT22;16877;48.810;9.282;2022-08-21T05:34:13;26.60;52.20
1367;DHT22;16877;48.810;9.282;2022-08-21T05:36:39;26.60;52.20
1367;DHT22;16877;48.810;9.282;2022-08-21T05:39:06;26.60;52.20
1367;DHT22;16877;48.810;9.282;2022-08-21T05:41:34;26.60;52.20
1367;DHT22;16877;48.810;9.282;2022-08-21T05:44:01;26.70;52.20
1367;DHT22;16877;48.810;9.282;2022-08-21T05:46:28;26.70;52.20
1367;DHT22;16877;48.810;9.282;2022-08-21T05:48:54;26.70;52.20
1367;DHT22;16877;48.810;9.282;2022-08-21T05:51:21;26.70;52.20
1367;DHT22;16877;48.810;9.282;2022-08-21T05:53:48;26.70;52.20
1367;DHT22;16877;48.810;9.282;2022-08-21T05:56:15;26.70;52.20
1367;DHT22;16877;48.810;9.282;2022-08-21T05:58:43;26.80;52.20
1367;DHT22;16877;48.810;9.282;2022-08-21T06:01:10;26.80;52.30
1367;DHT22;16877;48.810;9.282;2022-08-21T06:03:38;26.90;52.30
1367;DHT22;16877;48.810;9.282;2022-08-21T06:06:05;26.90;52.30
1367;DHT22;16877;48.810;9.282;2022-08-21T06:08:33;26.90;52.30
1367;DHT22;16877;48.810;9.282;2022-08-21T06:11:00;26.90;52.30
1367;DHT22;16877;48.810;9.282;2022-08-21T06:13:27;27.00;52.40
1367;DHT22;16877;48.810;9.282;2022-08-21T06:16:03;27.00;52.30
1367;DHT22;16877;48.810;9.282;2022-08-21T06:18:31;27.10;52.40
1367;DHT22;16877;48.810;9.282;2022-08-21T06:20:58;27.10;52.30
1367;DHT22;16877;48.810;9.282;2022-08-21T06:23:25;27.20;52.40
1367;DHT22;16877;48.810;9.282;2022-08-21T06:25:51;27.20;53.10
1367;DHT22;16877;48.810;9.282;2022-08-21T06:28:18;27.30;53.10
1367;DHT22;16877;48.810;9.282;2022-08-21T06:30:45;27.50;53.00
1367;DHT22;16877;48.810;9.282;2022-08-21T06:33:13;27.60;52.80
1367;DHT22;16877;48.810;9.282;2022-08-21T06:35:40;27.80;52.50
1367;DHT22;16877;48.810;9.282;2022-08-21T06:38:06;27.90;52.40
1367;DHT22;16877;48.810;9.282;2022-08-21T06:40:33;27.90;52.20
1367;DHT22;16877;48.810;9.282;2022-08-21T06:43:06;28.00;52.10
1367;DHT22;16877;48.810;9.282;2022-08-21T06:45:33;28.00;52.10
1367;DHT22;16877;48.810;9.282;2022-08-21T06:48:00;28.10;52.00
1367;DHT22;16877;48.810;9.282;2022-08-21T06:50:28;28.10;52.10
1367;DHT22;16877;48.810;9.282;2022-08-21T06:52:59;28.20;52.00
1367;DHT22;16877;48.810;9.282;2022-08-21T06:55:26;28.20;51.80
1367;DHT22;16877;48.810;9.282;2022-08-21T06:57:53;28.20;51.70
1367;DHT22;16877;48.810;9.282;2022-08-21T07:00:20;28.30;51.80
1367;DHT22;16877;48.810;9.282;2022-08-21T07:02:47;28.30;51.70
1367;DHT22;16877;48.810;9.282;2022-08-21T07:05:14;28.40;51.60
1367;DHT22;16877;48.810;9.282;2022-08-21T07:07:42;28.50;51.60
1367;DHT22;16877;48.810;9.282;2022-08-21T07:10:09;28.50;51.50
1367;DHT22;16877;48.810;9.282;2022-08-21T07:12:35;28.60;51.70
1367;DHT22;16877;48.810;9.282;2022-08-21T07:15:03;28.60;52.00
1367;DHT22;16877;48.810;9.282;2022-08-21T07:17:30;28.60;52.30
1367;DHT22;16877;48.810;9.282;2022-08-21T07:19:56;28.70;52.00
1367;DHT22;16877;48.810;9.282;2022-08-21T07:22:23;28.70;51.70
1367;DHT22;16877;48.810;9.282;2022-08-21T07:24:51;28.80;51.70
1367;DHT22;16877;48.810;9.282;2022-08-21T07:27:18;28.80;51.40
1367;DHT22;16877;48.810;9.282;2022-08-21T07:29:44;28.90;51.40
1367;DHT22;16877;48.810;9.282;2022-08-21T07:32:11;28.90;51.20
1367;DHT22;16877;48.810;9.282;2022-08-21T07:34:40;29.00;51.20
1367;DHT22;16877;48.810;9.282;2022-08-21T07:37:07;29.00;50.80
1367;DHT22;16877;48.810;9.282;2022-08-21T07:39:34;29.00;50.70
1367;DHT22;16877;48.810;9.282;2022-08-21T07:42:02;29.10;50.40
1367;DHT22;16877;48.810;9.282;2022-08-21T07:44:29;29.10;50.20
1367;DHT22;16877;48.810;9.282;2022-08-21T07:46:56;29.10;50.00
1367;DHT22;16877;48.810;9.282;2022-08-21T07:49:22;29.10;49.80
1367;DHT22;16877;48.810;9.282;2022-08-21T07:51:49;29.20;49.50
1367;DHT22;16877;48.810;9.282;2022-08-21T07:54:15;29.20;49.40
1367;DHT22;16877;48.810;9.282;2022-08-21T07:56:42;29.20;49.20
1367;DHT22;16877;48.810;9.282;2022-08-21T07:59:10;29.30;49.00
1367;DHT22;16877;48.810;9.282;2022-08-21T08:01:37;29.30;48.90
1367;DHT22;16877;48.810;9.282;2022-08-21T08:04:04;29.40;48.80
1367;DHT22;16877;48.810;9.282;2022-08-21T08:06:31;29.40;48.60
1367;DHT22;16877;48.810;9.282;2022-08-21T08:08:58;29.50;48.60
1367;DHT22;16877;48.810;9.282;2022-08-21T08:11:24;29.60;48.50
1367;DHT22;16877;48.810;9.282;2022-08-21T08:13:52;29.70;48.90
1367;DHT22;16877;48.810;9.282;2022-08-21T08:16:20;29.80;48.20
1367;DHT22;16877;48.810;9.282;2022-08-21T08:18:46;29.80;48.10
1367;DHT22;16877;48.810;9.282;2022-08-21T08:21:15;29.90;48.00
1367;DHT22;16877;48.810;9.282;2022-08-21T08:23:43;30.10;47.90
1367;DHT22;16877;48.810;9.282;2022-08-21T08:26:10;30.10;47.60
1367;DHT22;16877;48.810;9.282;2022-08-21T08:28:37;30.20;47.50
1367;DHT22;16877;48.810;9.282;2022-08-21T08:31:04;30.30;47.30
1367;DHT22;16877;48.810;9.282;2022-08-21T08:33:32;30.30;47.10
1367;DHT22;16877;48.810;9.282;2022-08-21T08:35:59;30.40;47.10
1367;DHT22;16877;48.810;9.282;2022-08-21T08:38:25;30.40;46.90
1367;DHT22;16877;48.810;9.282;2022-08-21T08:40:57;30.40;46.70
1367;DHT22;16877;48.810;9.282;2022-08-21T08:43:27;30.50;46.80
1367;DHT22;16877;48.810;9.282;2022-08-21T08:45:57;30.60;46.70
1367;DHT22;16877;48.810;9.282;2022-08-21T08:48:39;30.70;46.50
1367;DHT22;16877;48.810;9.282;2022-08-21T08:51:10;30.80;46.30
1367;DHT22;16877;48.810;9.282;2022-08-21T08:53:45;30.90;46.30
1367;DHT22;16877;48.810;9.282;2022-08-21T08:56:13;31.00;46.10
1367;DHT22;16877;48.810;9.282;2022-08-21T08:58:42;31.00;45.80
1367;DHT22;16877;48.810;9.282;2022-08-21T09:01:16;31.10;45.60
1367;DHT22;16877;48.810;9.282;2022-08-21T09:03:47;31.30;45.30
1367;DHT22;16877;48.810;9.282;2022-08-21T09:06:25;31.40;44.70
1367;DHT22;16877;48.810;9.282;2022-08-21T09:08:59;31.60;44.70
1367;DHT22;16877;48.810;9.282;2022-08-21T09:11:30;31.70;44.50
1367;DHT22;16877;48.810;9.282;2022-08-21T09:14:07;31.90;44.50
1367;DHT22;16877;48.810;9.282;2022-08-21T09:16:47;32.00;44.00
1367;DHT22;16877;48.810;9.282;2022-08-21T09:19:37;32.20;44.20
1367;DHT22;16877;48.810;9.282;2022-08-21T09:22:16;32.40;44.10
1367;DHT22;16877;48.810;9.282;2022-08-21T09:24:51;32.70;43.90
1367;DHT22;16877;48.810;9.282;2022-08-21T09:27:20;32.80;44.20
1367;DHT22;16877;48.810;9.282;2022-08-21T09:29:50;33.10;43.90
1367;DHT22;16877;48.810;9.282;2022-08-21T09:32:19;33.30;43.70
1367;DHT22;16877;48.810;9.282;2022-08-21T09:35:04;33.40;43.00
1367;DHT22;16877;48.810;9.282;2022-08-21T09:37:32;33.60;42.60
1367;DHT22;16877;48.810;9.282;2022-08-21T09:40:00;33.80;42.30
1367;DHT22;16877;48.810;9.282;2022-08-21T09:42:31;34.00;41.90
1367;DHT22;16877;48.810;9.282;2022-08-21T09:45:11;34.20;41.60
1367;DHT22;16877;48.810;9.282;2022-08-21T09:47:39;34.30;41.20
1367;DHT22;16877;48.810;9.282;2022-08-21T09:50:14;34.50;41.20
1367;DHT22;16877;48.810;9.282;2022-08-21T09:52:48;34.60;40.00
1367;DHT22;16877;48.810;9.282;2022-08-21T09:55:23;34.90;39.40
1367;DHT22;16877;48.810;9.282;2022-08-21T09:58:09;35.00;39.40
1367;DHT22;16877;48.810;9.282;2022-08-21T10:00:36;35.20;38.70
1367;DHT22;16877;48.810;9.282;2022-08-21T10:03:13;35.40;38.90
1367;DHT22;16877;48.810;9.282;2022-08-21T10:05:54;35.50;38.30
1367;DHT22;16877;48.810;9.282;2022-08-21T10:08:24;35.70;38.20
1367;DHT22;16877;48.810;9.282;2022-08-21T10:10:54;35.90;37.70
1367;DHT22;16877;48.810;9.282;2022-08-21T10:13:27;36.10;37.10
1367;DHT22;16877;48.810;9.282;2022-08-21T10:16:03;36.20;37.00
1367;DHT22;16877;48.810;9.282;2022-08-21T10:18:38;36.40;36.40
1367;DHT22;16877;48.810;9.282;2022-08-21T10:21:14;36.60;36.50
1367;DHT22;16877;48.810;9.282;2022-08-21T10:23:54;36.70;36.80
1367;DHT22;16877;48.810;9.282;2022-08-21T10:26:35;36.80;36.50
1367;DHT22;16877;48.810;9.282;2022-08-21T10:29:15;37.00;36.90
1367;DHT22;16877;48.810;9.282;2022-08-21T10:31:52;37.20;36.60
1367;DHT22;16877;48.810;9.282;2022-08-21T10:34:30;37.40;36.20
1367;DHT22;16877;48.810;9.282;2022-08-21T10:37:14;37.50;36.20
1367;DHT22;16877;48.810;9.282;2022-08-21T10:39:49;37.60;36.10
1367;DHT22;16877;48.810;9.282;2022-08-21T10:42:28;37.80;35.90
1367;DHT22;16877;48.810;9.282;2022-08-21T10:45:08;38.00;35.70
1367;DHT22;16877;48.810;9.282;2022-08-21T10:47:42;38.10;35.60
1367;DHT22;16877;48.810;9.282;2022-08-21T10:50:15;38.10;35.10
1367;DHT22;16877;48.810;9.282;2022-08-21T10:53:02;38.10;35.10
1367;DHT22;16877;48.810;9.282;2022-08-21T10:55:35;38.50;35.00
1367;DHT22;16877;48.810;9.282;2022-08-21T10:58:08;38.60;34.60
1367;DHT22;16877;48.810;9.282;2022-08-21T11:00:41;38.80;34.50
1367;DHT22;16877;48.810;9.282;2022-08-21T11:03:13;38.70;33.50
1367;DHT22;16877;48.810;9.282;2022-08-21T11:05:46;39.10;33.80
1367;DHT22;16877;48.810;9.282;2022-08-21T11:08:26;39.10;33.10
1367;DHT22;16877;48.810;9.282;2022-08-21T11:10:59;39.20;33.00
1367;DHT22;16877;48.810;9.282;2022-08-21T11:13:32;39.30;33.50
1367;DHT22;16877;48.810;9.282;2022-08-21T11:16:05;39.50;33.20
1367;DHT22;16877;48.810;9.282;2022-08-21T11:18:36;39.50;33.00
1367;DHT22;16877;48.810;9.282;2022-08-21T11:21:20;39.20;33.00
1367;DHT22;16877;48.810;9.282;2022-08-21T11:23:59;39.40;33.30
1367;DHT22;16877;48.810;9.282;2022-08-21T11:26:32;39.60;32.90
1367;DHT22;16877;48.810;9.282;2022-08-21T11:29:05;39.80;32.80
1367;DHT22;16877;48.810;9.282;2022-08-21T11:31:46;39.90;32.00
1367;DHT22;16877;48.810;9.282;2022-08-21T11:34:24;40.10;32.00
1367;DHT22;16877;48.810;9.282;2022-08-21T11:36:59;40.30;32.20
1367;DHT22;16877;48.810;9.282;2022-08-21T11:39:35;40.50;31.60
1367;DHT22;16877;48.810;9.282;2022-08-21T11:42:12;40.50;31.80
1367;DHT22;16877;48.810;9.282;2022-08-21T11:44:49;40.60;32.00
1367;DHT22;16877;48.810;9.282;2022-08-21T11:47:23;40.70;31.40
1367;DHT22;16877;48.810;9.282;2022-08-21T11:50:02;40.80;31.60
1367;DHT22;16877;48.810;9.282;2022-08-21T11:52:42;41.00;31.30
1367;DHT22;16877;48.810;9.282;2022-08-21T11:55:16;41.10;31.00
1367;DHT22;16877;48.810;9.282;2022-08-21T11:57:56;41.20;31.20
1367;DHT22;16877;48.810;9.282;2022-08-21T12:00:29;41.10;30.70
1367;DHT22;16877;48.810;9.282;2022-08-21T12:03:05;41.20;30.30
1367;DHT22;16877;48.810;9.282;2022-08-21T12:05:36;40.90;30.30
1367;DHT22;16877;48.810;9.282;2022-08-21T12:08:08;40.20;30.30
1367;DHT22;16877;48.810;9.282;2022-08-21T12:10:40;40.00;30.40
1367;DHT22;16877;48.810;9.282;2022-08-21T12:13:09;39.90;30.20
1367;DHT22;16877;48.810;9.282;2022-08-21T12:15:38;40.30;30.30
1367;DHT22;16877;48.810;9.282;2022-08-21T12:18:07;40.50;30.10
1367;DHT22;16877;48.810;9.282;2022-08-21T12:20:58;40.60;30.00
1367;DHT22;16877;48.810;9.282;2022-08-21T12:23:30;40.90;29.90
1367;DHT22;16877;48.810;9.282;2022-08-21T12:28:46;41.20;30.00
1367;DHT22;16877;48.810;9.282;2022-08-21T12:31:22;41.50;30.30
1367;DHT22;16877;48.810;9.282;2022-08-21T12:33:59;41.50;29.60
1367;DHT22;16877;48.810;9.282;2022-08-21T12:36:38;41.70;29.90
1367;DHT22;16877;48.810;9.282;2022-08-21T12:39:12;41.80;29.80
1367;DHT22;16877;48.810;9.282;2022-08-21T12:41:47;42.00;29.70
1367;DHT22;16877;48.810;9.282;2022-08-21T12:44:28;42.20;29.90
1367;DHT22;16877;48.810;9.282;2022-08-21T12:46:58;42.40;29.70
1367;DHT22;16877;48.810;9.282;2022-08-21T12:49:28;42.50;29.70
1367;DHT22;16877;48.810;9.282;2022-08-21T12:52:03;42.60;29.10
1367;DHT22;16877;48.810;9.282;2022-08-21T12:54:39;42.10;29.00
1367;DHT22;16877;48.810;9.282;2022-08-21T12:57:16;42.20;29.60
1367;DHT22;16877;48.810;9.282;2022-08-21T12:59:43;42.30;29.80
1367;DHT22;16877;48.810;9.282;2022-08-21T13:02:16;42.60;29.60
1367;DHT22;16877;48.810;9.282;2022-08-21T13:04:46;42.40;28.90
1367;DHT22;16877;48.810;9.282;2022-08-21T13:07:15;38.20;29.00
1367;DHT22;16877;48.810;9.282;2022-08-21T13:09:48;38.80;30.30
1367;DHT22;16877;48.810;9.282;2022-08-21T13:12:17;38.20;30.40
1367;DHT22;16877;48.810;9.282;2022-08-21T13:14:46;39.20;30.80
1367;DHT22;16877;48.810;9.282;2022-08-21T13:17:17;39.30;30.10
1367;DHT22;16877;48.810;9.282;2022-08-21T13:19:53;39.70;30.60
1367;DHT22;16877;48.810;9.282;2022-08-21T13:22:20;40.40;30.50
1367;DHT22;16877;48.810;9.282;2022-08-21T13:24:47;40.70;30.40
1367;DHT22;16877;48.810;9.282;2022-08-21T13:27:25;40.80;29.90
1367;DHT22;16877;48.810;9.282;2022-08-21T13:30:09;41.10;29.50
1367;DHT22;16877;48.810;9.282;2022-08-21T13:32:49;41.50;29.50
1367;DHT22;16877;48.810;9.282;2022-08-21T13:35:19;41.80;29.30
1367;DHT22;16877;48.810;9.282;2022-08-21T13:37:47;41.80;29.40
1367;DHT22;16877;48.810;9.282;2022-08-21T13:40:17;41.90;29.20
1367;DHT22;16877;48.810;9.282;2022-08-21T13:42:47;42.00;29.10
1367;DHT22;16877;48.810;9.282;2022-08-21T13:45:20;42.10;29.10
1367;DHT22;16877;48.810;9.282;2022-08-21T13:47:48;42.20;29.10
1367;DHT22;16877;48.810;9.282;2022-08-21T13:50:16;42.00;28.80
1367;DHT22;16877;48.810;9.282;2022-08-21T13:52:49;42.00;28.70
1367;DHT22;16877;48.810;9.282;2022-08-21T13:55:17;41.90;28.50
1367;DHT22;16877;48.810;9.282;2022-08-21T13:57:45;41.50;28.80
1367;DHT22;16877;48.810;9.282;2022-08-21T14:00:16;41.40;29.30
1367;DHT22;16877;48.810;9.282;2022-08-21T14:02:46;40.10;28.50
1367;DHT22;16877;48.810;9.282;2022-08-21T14:05:19;38.00;29.30
1367;DHT22;16877;48.810;9.282;2022-08-21T14:07:47;37.40;30.50
1367;DHT22;16877;48.810;9.282;2022-08-21T14:10:17;38.80;30.70
1367;DHT22;16877;48.810;9.282;2022-08-21T14:12:50;39.70;30.30
1367;DHT22;16877;48.810;9.282;2022-08-21T14:15:21;40.50;30.00
1367;DHT22;16877;48.810;9.282;2022-08-21T14:17:48;40.90;29.60
1367;DHT22;16877;48.810;9.282;2022-08-21T14:20:27;41.10;29.40
1367;DHT22;16877;48.810;9.282;2022-08-21T14:22:54;40.70;29.40
1367;DHT22;16877;48.810;9.282;2022-08-21T14:25:28;40.50;29.40
1367;DHT22;16877;48.810;9.282;2022-08-21T14:28:02;40.80;29.60
1367;DHT22;16877;48.810;9.282;2022-08-21T14:30:31;41.10;29.40
1367;DHT22;16877;48.810;9.282;2022-08-21T14:32:59;41.20;29.20
1367;DHT22;16877;48.810;9.282;2022-08-21T14:35:27;41.30;29.10
1367;DHT22;16877;48.810;9.282;2022-08-21T14:37:53;41.30;28.80
1367;DHT22;16877;48.810;9.282;2022-08-21T14:40:23;41.40;28.90
1367;DHT22;16877;48.810;9.282;2022-08-21T14:42:51;41.50;28.80
1367;DHT22;16877;48.810;9.282;2022-08-21T14:45:23;41.40;28.90
1367;DHT22;16877;48.810;9.282;2022-08-21T14:47:51;41.40;29.00
1367;DHT22;16877;48.810;9.282;2022-08-21T14:50:17;40.60;28.30
1367;DHT22;16877;48.810;9.282;2022-08-21T14:52:45;39.40;28.60
1367;DHT22;16877;48.810;9.282;2022-08-21T14:55:14;38.90;29.30
1367;DHT22;16877;48.810;9.282;2022-08-21T14:57:42;39.10;29.90
1367;DHT22;16877;48.810;9.282;2022-08-21T15:00:13;39.80;29.90
1367;DHT22;16877;48.810;9.282;2022-08-21T15:02:41;40.30;29.70
1367;DHT22;16877;48.810;9.282;2022-08-21T15:05:08;40.60;29.20
1367;DHT22;16877;48.810;9.282;2022-08-21T15:07:34;40.60;28.90
1367;DHT22;16877;48.810;9.282;2022-08-21T15:10:03;40.40;29.10
1367;DHT22;16877;48.810;9.282;2022-08-21T15:12:33;40.20;29.10
1367;DHT22;16877;48.810;9.282;2022-08-21T15:14:59;39.80;29.30
1367;DHT22;16877;48.810;9.282;2022-08-21T15:17:26;39.40;29.50
1367;DHT22;16877;48.810;9.282;2022-08-21T15:19:54;38.70;29.30
1367;DHT22;16877;48.810;9.282;2022-08-21T15:22:22;38.90;30.00
1367;DHT22;16877;48.810;9.282;2022-08-21T15:24:48;39.20;30.10
1367;DHT22;16877;48.810;9.282;2022-08-21T15:27:17;39.80;29.90
1367;DHT22;16877;48.810;9.282;2022-08-21T15:29:45;40.20;29.70
1367;DHT22;16877;48.810;9.282;2022-08-21T15:32:18;40.40;29.30
1367;DHT22;16877;48.810;9.282;2022-08-21T15:34:47;40.50;29.20
1367;DHT22;16877;48.810;9.282;2022-08-21T15:37:15;40.70;29.10
1367;DHT22;16877;48.810;9.282;2022-08-21T15:39:42;40.80;29.10
1367;DHT22;16877;48.810;9.282;2022-08-21T15:42:09;40.90;28.80
1367;DHT22;16877;48.810;9.282;2022-08-21T15:44:38;40.90;28.70
1367;DHT22;16877;48.810;9.282;2022-08-21T15:47:06;40.80;28.60
1367;DHT22;16877;48.810;9.282;2022-08-21T15:49:32;40.80;28.70
1367;DHT22;16877;48.810;9.282;2022-08-21T15:51:59;40.90;28.40
1367;DHT22;16877;48.810;9.282;2022-08-21T15:54:27;40.80;28.30
1367;DHT22;16877;48.810;9.282;2022-08-21T15:56:53;40.80;28.50
1367;DHT22;16877;48.810;9.282;2022-08-21T15:59:21;40.60;28.30
1367;DHT22;16877;48.810;9.282;2022-08-21T16:01:49;40.80;28.50
1367;DHT22;16877;48.810;9.282;2022-08-21T16:04:21;40.70;28.70